Terminal Aerodrome Forecast
Issued by NWS Jackson, KY

Home | Current Version | Previous Version | Text Only | Print | Product List | Glossary On
Versions: 1 2 3 4 5 6 7 8 9 10 11 12 13 14 15 16
000
FTUS43 KJKL 191138
TAFJKL
TAF
KJKL 191138Z 1912/2012 VRB04KT P6SM OVC050 WS020/22040KT
     FM191500 21009G15KT P6SM BKN050
     FM192300 VRB04KT P6SM BKN150
     FM200300 VRB04KT P6SM SCT250 WS020/21040KT=

USA.gov is the U.S. government's official web portal to all federal, state and local government web resources and services.